Allendale, MI (49401)

08:53 EST le 20 janvier 2017 (GMT -0500)
Trail Creek Pass | | Change Station
Avis météorologiques actifs: Flood Warning

Alt. 659 ft 43.01 °N, 86.00 °W | Updated 6 seconds ago

Pluie
Pluie
35.4 ° F
Paraît 33 ° F
N
3.1
Vent Variable Vent de NE
Gusts 4.0 mph

Aujourd'hui
Haut(e) -- | Bas -- ° F
--% Risque de précip.
Hier
Haut(e) -- | Bas -- ° F
Precip. -- pouce
Pression 29.66 pouce
Visibilité -9999.0 Miles terrestres
Nuages Nuages épars 400 ft
Couvert 3900 ft
Refroidissement éolien 33 ° F
Point de rosée 35 ° F
Humidité 97%
Précipitations 0.27 pouce
Profondeur de la couche neigeuse Non disponible.
8:09 AM 5:41 PM
Dernier quartier, 44% visible
SPECI KBIV 201310Z AUTO 05006KT -RA SCT004 OVC039 02/01 A2966 RMK AO2 P0000 T00220011 $
Pression 29.66 pouce
Visibilité -9999.0 Miles terrestres
Nuages Nuages épars 400 ft
Couvert 3900 ft
Refroidissement éolien 33 ° F
Point de rosée 35 ° F
Humidité 97%
Précipitations 0.27 pouce
Profondeur de la couche neigeuse Non disponible.
8:09 AM 5:41 PM
Dernier quartier, 44% visible
SPECI KBIV 201310Z AUTO 05006KT -RA SCT004 OVC039 02/01 A2966 RMK AO2 P0000 T00220011 $

Get Your Daily Forecast Email!

Thanks for signing up!

Be on the lookout for a verification email in your inbox.

You'll start receiving the daily forecast at 8 AM.

×

10-Day Weather Forecast

Almanac

Astronomie

Jan. 20, 2017 Lever Coucher
Temps réel
Crépuscule civil
Crépuscule nautique
Crépuscule astronomique
Lune
Durée de lumière visible
Longueur du jour
Tomorrow will be .
, % of the Moon is Illuminated

Extrêmes aujourd'hui

State Highs State Lows

Community

WunderPhotos

Upload Photos

1,962,540 Photos téléchargées !

WunderBlog® & News

Nearby

Qualité de l'air

  Qualité de l'air Indice de la qualité de l'air Polluant
Not available.

Épaisseur de neige

Station Depth Altitude

Activité sismique

Ville Distance Mag. Time & Date
Minimum magnitude displayed is 2.5.

Températures des eaux côtières

Lieu Température

Stations

Stations météo à proximité

Emplacement de la station Température Refroidissement éolien Point de rosée Humidité Vent Precip. Alt. Mise à jour Type
                   

Watches & Warnings

Flood Warning
Issued: 21:15 EST Jan. 19, 2017 – National Weather Service

The Flood Warning continues for
the Grand River at Robinson township.
* Until further notice.
* At 4:21 PM Thursday the stage was 13.9 feet.
* Flood stage is 13.3 feet.
* Minor flooding is occurring and minor flooding is forecast.
* Forecast, the river will continue rising to near 14.0 feet by after
midnight tonight and remain nearly steady.
Ice in the river could cause fluctations in The
Levels.
* Impact, at 13.9 feet... several homes in vanlopik subdivision are
surrounded by water.
* Flood history, this crest compares to a previous crest of 14.2 feet
on Jan 16 2016.


Lat... Lon 4300 8610 4297 8595 4291 8589 4297 8583
      4304 8591 4307 8610